Time;durP1;ratioP1;P1;durP2;ratioP2;P2;SDS_P1;SDS_P2;PMS_P1;PMS_P2;Temp;Humidity;BMP_temperature;BMP_pressure;BME280_temperature;BME280_humidity;BME280_pressure;Samples;Min_cycle;Max_cycle;Signal;HPM_P1;HPM_P2
2023/02/02 00:01:58;;;;;;;22.30;3.65;;;15.00;69.40;;;;;;4062931;29;20142;-65
2023/02/02 00:04:39;;;;;;;11.60;3.40;;;15.10;69.40;;;;;;4062192;29;20063;-65
2023/02/02 00:07:20;;;;;;;13.18;3.00;;;15.20;69.10;;;;;;4051103;29;20051;-65
2023/02/02 00:10:04;;;;;;;17.40;2.93;;;15.30;68.90;;;;;;4051105;29;20059;-65
2023/02/02 00:12:45;;;;;;;17.35;3.25;;;15.30;69.60;;;;;;4062122;29;20334;-65
2023/02/02 00:15:25;;;;;;;13.07;3.83;;;15.30;68.70;;;;;;4062601;29;20051;-65
2023/02/02 00:18:07;;;;;;;17.00;3.80;;;15.30;69.60;;;;;;4047116;29;20416;-65
2023/02/02 00:20:49;;;;;;;18.88;3.30;;;15.30;68.80;;;;;;4047130;29;20362;-65
2023/02/02 00:23:29;;;;;;;16.65;3.38;;;15.30;68.80;;;;;;4047240;29;20063;-65
2023/02/02 00:26:11;;;;;;;23.65;3.78;;;15.30;68.70;;;;;;4050891;29;20051;-65
2023/02/02 00:28:52;;;;;;;14.63;3.13;;;15.30;68.70;;;;;;4062700;29;20070;-66
2023/02/02 00:31:34;;;;;;;17.48;3.83;;;15.30;68.90;;;;;;4062663;29;20072;-65
2023/02/02 00:34:16;;;;;;;19.83;4.20;;;15.40;68.90;;;;;;4039974;29;20051;-65
2023/02/02 00:36:59;;;;;;;15.02;3.58;;;15.40;68.60;;;;;;4058445;29;20502;-64
2023/02/02 00:39:41;;;;;;;;;;;15.40;68.50;;;;;;4062699;29;20585;-65
2023/02/02 00:42:23;;;;;;;18.85;3.05;;;15.40;68.80;;;;;;4039790;29;20389;-65
2023/02/02 00:45:17;;;;;;;16.05;3.20;;;15.40;68.60;;;;;;4062264;29;20399;-65
2023/02/02 00:47:58;;;;;;;19.90;3.03;;;15.40;68.40;;;;;;4034625;29;20059;-65
2023/02/02 00:50:39;;;;;;;15.77;2.70;;;15.50;68.60;;;;;;4047849;29;20399;-65
2023/02/02 00:53:20;;;;;;;25.27;3.55;;;15.40;68.50;;;;;;4045643;29;20048;-65
2023/02/02 00:56:01;;;;;;;19.38;3.80;;;15.50;68.70;;;;;;4053534;29;20067;-65
2023/02/02 00:58:44;;;;;;;22.92;3.67;;;15.50;68.70;;;;;;4063130;29;20043;-65
2023/02/02 01:01:25;;;;;;;18.23;3.38;;;15.60;68.40;;;;;;4064909;29;20058;-65
2023/02/02 01:04:06;;;;;;;19.02;3.72;;;15.60;68.30;;;;;;4065081;29;20055;-65
2023/02/02 01:06:47;;;;;;;19.55;4.05;;;15.50;68.10;;;;;;4064354;29;20099;-64
2023/02/02 01:09:28;;;;;;;21.42;4.00;;;15.50;68.30;;;;;;4065237;29;20099;-66
2023/02/02 01:12:09;;;;;;;19.45;3.47;;;15.50;68.30;;;;;;4064869;29;20067;-66
2023/02/02 01:14:51;;;;;;;20.00;4.13;;;15.40;68.80;;;;;;4053384;29;20048;-65
2023/02/02 01:17:34;;;;;;;18.98;4.45;;;15.40;69.00;;;;;;4052927;29;20051;-65
2023/02/02 01:20:18;;;;;;;20.33;3.60;;;15.50;69.00;;;;;;4052794;29;20055;-65
2023/02/02 01:22:59;;;;;;;18.58;3.53;;;15.50;68.60;;;;;;4052708;29;20407;-65
2023/02/02 01:25:40;;;;;;;16.98;3.25;;;15.50;68.40;;;;;;4064344;29;20079;-65
2023/02/02 01:28:21;;;;;;;17.98;3.75;;;15.50;68.40;;;;;;4064436;29;20082;-66
2023/02/02 01:31:08;;;;;;;16.77;3.35;;;15.60;68.60;;;;;;4041979;29;20051;-65
2023/02/02 01:33:50;;;;;;;21.75;4.65;;;15.60;68.40;;;;;;4064341;29;20059;-65
2023/02/02 01:36:31;;;;;;;;;;;15.60;68.30;;;;;;4053047;29;20086;-65
2023/02/02 01:39:12;;;;;;;15.43;3.37;;;15.60;68.40;;;;;;4064316;29;19934;-65
2023/02/02 01:41:53;;;;;;;23.92;4.25;;;15.50;68.60;;;;;;4037193;29;20308;-65
2023/02/02 01:45:11;;;;;;;16.58;3.65;;;15.50;68.70;;;;;;4059171;29;20789;-64
2023/02/02 01:47:57;;;;;;;18.83;3.88;;;15.50;68.40;;;;;;4048016;29;20051;-64
2023/02/02 01:50:37;;;;;;;18.83;4.07;;;15.50;68.60;;;;;;4037241;29;20052;-67
2023/02/02 01:53:19;;;;;;;21.58;4.20;;;15.50;68.70;;;;;;4047833;29;20055;-64
2023/02/02 01:56:03;;;;;;;21.63;4.25;;;15.50;68.90;;;;;;4049409;29;20168;-65
2023/02/02 01:58:45;;;;;;;15.65;3.35;;;15.60;68.80;;;;;;4052730;29;20059;-65
2023/02/02 02:01:26;;;;;;;16.00;3.40;;;15.60;69.50;;;;;;4064461;29;20051;-65
2023/02/02 02:04:09;;;;;;;19.10;3.50;;;15.60;68.70;;;;;;4052583;29;20055;-65
2023/02/02 02:06:52;;;;;;;17.75;3.58;;;15.60;68.60;;;;;;4052430;29;20062;-65
2023/02/02 02:09:34;;;;;;;20.80;4.10;;;15.60;68.70;;;;;;4052234;29;20055;-64
2023/02/02 02:12:16;;;;;;;16.80;3.88;;;15.50;68.80;;;;;;4052224;29;20123;-65
2023/02/02 02:18:07;;;;;;;18.23;4.78;;;15.50;69.40;;;;;;4063893;29;20500;-65
2023/02/02 02:28:23;;;;;;;17.45;3.55;;;15.70;69.20;;;;;;4040966;29;20055;-65
2023/02/02 02:31:54;;;;;;;20.92;4.15;;;15.60;68.30;;;;;;4063405;29;20055;-64
2023/02/02 02:34:47;;;;;;;17.15;3.88;;;15.60;68.50;;;;;;4042567;29;20111;-65
2023/02/02 02:37:37;;;;;;;17.63;4.15;;;15.60;68.90;;;;;;4063406;29;20051;-69
2023/02/02 02:40:25;;;;;;;17.73;3.78;;;15.70;68.80;;;;;;4052011;29;20509;-70
2023/02/02 02:43:16;;;;;;;20.42;4.05;;;15.70;68.60;;;;;;4051544;29;20067;-70
2023/02/02 02:45:57;;;;;;;19.73;3.35;;;15.60;68.70;;;;;;4051837;29;20156;-69
2023/02/02 02:48:39;;;;;;;15.77;3.45;;;15.60;68.80;;;;;;4051720;29;20047;-70
2023/02/02 02:51:43;;;;;;;15.23;3.42;;;15.60;68.90;;;;;;4047462;29;20056;-70
2023/02/02 02:54:33;;;;;;;19.50;3.63;;;15.70;68.50;;;;;;4035748;29;20063;-70
2023/02/02 02:57:40;;;;;;;15.65;3.63;;;15.60;68.60;;;;;;4036334;29;20483;-70
2023/02/02 03:00:32;;;;;;;15.35;3.80;;;15.70;68.70;;;;;;4059736;29;20055;-70
2023/02/02 03:03:23;;;;;;;14.55;3.97;;;15.70;68.50;;;;;;4063306;29;20144;-70
2023/02/02 03:06:14;;;;;;;15.40;3.25;;;15.60;68.60;;;;;;4062928;29;20067;-68
2023/02/02 03:09:00;;;;;;;12.75;3.28;;;15.60;68.80;;;;;;4063287;29;20150;-70
2023/02/02 03:11:41;;;;;;;17.45;4.22;;;15.50;69.00;;;;;;4063267;29;20055;-70
2023/02/02 03:14:22;;;;;;;15.18;3.75;;;15.50;69.50;;;;;;4063195;29;20055;-71
2023/02/02 03:17:03;;;;;;;12.25;3.35;;;15.60;69.50;;;;;;4062789;29;20075;-70
2023/02/02 03:19:44;;;;;;;15.15;3.35;;;15.60;69.30;;;;;;4062362;29;20063;-70
2023/02/02 03:22:27;;;;;;;16.77;3.83;;;15.60;69.30;;;;;;4062951;29;20043;-70
2023/02/02 03:25:10;;;;;;;21.00;3.60;;;15.70;69.30;;;;;;4062687;29;20055;-70
2023/02/02 03:27:51;;;;;;;13.25;3.30;;;15.70;69.10;;;;;;4062746;29;20054;-70
2023/02/02 03:30:32;;;;;;;19.98;3.28;;;15.70;68.90;;;;;;4062292;29;20047;-71
2023/02/02 03:33:15;;;;;;;14.32;3.33;;;15.70;69.00;;;;;;4061838;29;20400;-70
2023/02/02 03:35:55;;;;;;;23.13;3.47;;;15.70;69.10;;;;;;4062906;29;20048;-70
2023/02/02 03:38:38;;;;;;;15.73;3.88;;;15.60;69.10;;;;;;4063085;29;20055;-70
2023/02/02 03:41:18;;;;;;;19.25;3.30;;;15.60;69.30;;;;;;4047331;29;20515;-70
2023/02/02 03:43:59;;;;;;;19.35;3.50;;;15.60;69.50;;;;;;4047174;29;20067;-70
2023/02/02 03:46:40;;;;;;;27.83;4.00;;;15.60;69.50;;;;;;4047022;29;20196;-70
2023/02/02 03:49:22;;;;;;;15.75;3.58;;;15.60;69.60;;;;;;4056141;29;20067;-70
2023/02/02 03:52:03;;;;;;;19.02;3.40;;;15.60;69.80;;;;;;4063157;29;20055;-71
2023/02/02 03:54:45;;;;;;;;;;;15.60;70.00;;;;;;4063011;29;20189;-71
2023/02/02 03:57:26;;;;;;;12.93;2.83;;;15.60;70.00;;;;;;4062439;29;20059;-71
2023/02/02 04:00:09;;;;;;;13.20;3.28;;;15.70;69.70;;;;;;4062627;29;20067;-70
2023/02/02 04:02:54;;;;;;;14.63;3.45;;;15.60;69.60;;;;;;4062702;29;20392;-70
2023/02/02 04:05:35;;;;;;;12.73;2.80;;;15.70;69.50;;;;;;4062254;29;20514;-70
2023/02/02 04:08:16;;;;;;;16.00;3.58;;;15.70;69.60;;;;;;4062846;29;20060;-70
2023/02/02 04:10:58;;;;;;;17.98;3.55;;;15.70;69.40;;;;;;4047150;29;20804;-70
2023/02/02 04:13:42;;;;;;;10.27;2.55;;;15.60;69.50;;;;;;4047035;29;20397;-70
2023/02/02 04:16:23;;;;;;;16.08;2.55;;;15.60;69.80;;;;;;4046732;29;20052;-70
2023/02/02 04:19:04;;;;;;;9.47;2.43;;;15.70;69.60;;;;;;4052220;29;20055;-70
2023/02/02 04:21:44;;;;;;;8.27;2.35;;;15.80;69.40;;;;;;4062446;29;20778;-70
2023/02/02 04:24:25;;;;;;;6.43;1.92;;;15.80;69.00;;;;;;4062824;29;20099;-70
2023/02/02 04:27:07;;;;;;;7.00;1.80;;;15.90;68.90;;;;;;4062401;29;20071;-70
2023/02/02 04:29:48;;;;;;;8.27;1.38;;;15.90;68.90;;;;;;4062780;29;20303;-70
2023/02/02 04:32:29;;;;;;;6.30;1.52;;;15.90;68.70;;;;;;4062373;29;20542;-71
2023/02/02 04:35:10;;;;;;;6.03;1.40;;;15.90;68.60;;;;;;4065644;29;20051;-70
2023/02/02 04:37:51;;;;;;;5.97;1.20;;;15.90;68.50;;;;;;4065210;29;20059;-70
2023/02/02 04:40:31;;;;;;;4.40;1.33;;;15.90;68.10;;;;;;4065538;29;20055;-70
2023/02/02 04:43:14;;;;;;;3.63;1.23;;;16.00;68.10;;;;;;4065645;29;20161;-70
2023/02/02 04:45:56;;;;;;;1.55;0.75;;;16.00;67.80;;;;;;4065394;29;20054;-70
2023/02/02 04:48:37;;;;;;;4.47;0.88;;;15.90;67.40;;;;;;4063679;29;20067;-70
2023/02/02 04:51:18;;;;;;;3.28;0.88;;;15.90;67.70;;;;;;4065175;29;20467;-70
2023/02/02 04:53:59;;;;;;;3.92;0.90;;;15.80;67.90;;;;;;4053284;29;20098;-70
2023/02/02 04:56:40;;;;;;;4.03;1.20;;;15.80;68.00;;;;;;4064870;29;20070;-71
2023/02/02 04:59:22;;;;;;;6.23;1.17;;;15.70;68.30;;;;;;4065175;29;20098;-71
2023/02/02 05:02:03;;;;;;;2.92;1.10;;;15.60;69.60;;;;;;4064920;29;20295;-70
2023/02/02 05:04:44;;;;;;;3.70;0.95;;;15.70;69.20;;;;;;4065141;29;20063;-71
2023/02/02 05:07:25;;;;;;;2.10;0.50;;;15.80;69.00;;;;;;4064901;29;20051;-70
2023/02/02 05:10:07;;;;;;;4.32;0.98;;;15.80;68.70;;;;;;4065100;29;20067;-70
2023/02/02 05:12:48;;;;;;;4.70;1.20;;;15.90;68.40;;;;;;4064990;29;20059;-70
2023/02/02 05:15:30;;;;;;;3.22;1.15;;;15.90;68.20;;;;;;4065087;29;20419;-70
2023/02/02 05:18:11;;;;;;;2.00;1.02;;;15.90;68.10;;;;;;4064657;29;20067;-70
2023/02/02 05:20:53;;;;;;;6.28;1.17;;;15.90;68.20;;;;;;4065030;29;20078;-71
2023/02/02 05:23:35;;;;;;;2.38;1.33;;;15.90;68.50;;;;;;4064853;29;20111;-70
2023/02/02 05:26:20;;;;;;;2.78;0.95;;;15.80;68.70;;;;;;4064891;29;20079;-70
2023/02/02 05:29:01;;;;;;;7.35;1.92;;;15.90;68.80;;;;;;4064884;29;20051;-69
2023/02/02 05:31:44;;;;;;;4.03;0.93;;;15.90;68.60;;;;;;4064923;29;20055;-70
2023/02/02 05:34:25;;;;;;;4.38;0.90;;;15.90;68.40;;;;;;4064266;29;20062;-70
2023/02/02 05:37:06;;;;;;;3.75;1.25;;;16.00;68.40;;;;;;4064772;29;20059;-71
2023/02/02 05:39:48;;;;;;;4.88;1.92;;;16.00;68.20;;;;;;4064808;29;20078;-65
2023/02/02 05:42:29;;;;;;;2.92;1.10;;;16.10;68.20;;;;;;4064313;29;20511;-65
2023/02/02 05:45:11;;;;;;;5.55;1.55;;;16.10;67.80;;;;;;4063371;29;20062;-65
2023/02/02 05:47:55;;;;;;;4.93;1.58;;;16.10;67.80;;;;;;4064593;29;20106;-65
2023/02/02 05:50:35;;;;;;;7.50;1.20;;;16.00;67.80;;;;;;4064823;29;20147;-65
2023/02/02 05:53:17;;;;;;;3.97;1.15;;;16.00;68.20;;;;;;4064322;29;20563;-64
2023/02/02 05:55:58;;;;;;;1.80;0.80;;;15.90;68.40;;;;;;4064265;29;20067;-65
2023/02/02 05:58:39;;;;;;;2.40;1.10;;;16.00;68.50;;;;;;4064689;29;20063;-65
2023/02/02 06:01:20;;;;;;;4.30;0.93;;;16.00;68.50;;;;;;4064085;29;20063;-65
2023/02/02 06:04:03;;;;;;;4.68;1.13;;;16.00;68.20;;;;;;4064116;29;20127;-66
2023/02/02 06:06:44;;;;;;;3.05;0.77;;;16.00;68.10;;;;;;4063895;29;20527;-65
2023/02/02 06:09:25;;;;;;;3.05;0.90;;;16.00;68.10;;;;;;4064093;29;20081;-65
2023/02/02 06:12:07;;;;;;;2.90;1.13;;;15.90;68.20;;;;;;4064278;29;20055;-65
2023/02/02 06:14:47;;;;;;;;;;;15.90;68.70;;;;;;4060357;29;20395;-64
2023/02/02 06:17:28;;;;;;;3.92;1.05;;;16.00;68.70;;;;;;4064184;29;20298;-65
2023/02/02 06:20:12;;;;;;;6.15;1.00;;;16.00;68.40;;;;;;4064137;29;20819;-64
2023/02/02 06:22:53;;;;;;;4.72;1.38;;;16.00;68.20;;;;;;4063856;29;20099;-64
2023/02/02 06:25:34;;;;;;;6.50;1.13;;;16.00;68.30;;;;;;4063901;29;20070;-64
2023/02/02 06:28:15;;;;;;;1.63;0.82;;;16.00;68.50;;;;;;4052157;29;20059;-65
2023/02/02 06:30:56;;;;;;;4.72;0.85;;;15.90;68.70;;;;;;4063699;29;20512;-65
2023/02/02 06:33:37;;;;;;;4.82;1.10;;;16.00;68.70;;;;;;4063952;29;20066;-65
2023/02/02 06:36:20;;;;;;;2.10;0.63;;;16.00;68.60;;;;;;4048054;29;20630;-70
2023/02/02 06:39:03;;;;;;;4.22;1.02;;;16.00;68.50;;;;;;4052313;29;20411;-69
2023/02/02 06:41:47;;;;;;;5.05;1.20;;;16.00;68.20;;;;;;4063544;29;20103;-70
2023/02/02 06:44:28;;;;;;;3.22;1.02;;;16.00;68.40;;;;;;4051644;29;20064;-71
2023/02/02 06:47:09;;;;;;;7.20;2.40;;;16.00;68.70;;;;;;4051460;29;20127;-70
2023/02/02 06:49:50;;;;;;;3.67;1.23;;;16.00;68.80;;;;;;4063347;29;20188;-71
2023/02/02 06:52:32;;;;;;;3.58;1.00;;;16.00;68.50;;;;;;4063024;29;20054;-68
2023/02/02 06:55:13;;;;;;;6.00;1.00;;;16.10;68.80;;;;;;4050146;29;20738;-70
2023/02/02 06:57:57;;;;;;;4.13;1.15;;;16.10;68.70;;;;;;4062964;29;20110;-66
2023/02/02 07:00:38;;;;;;;6.45;1.08;;;16.20;68.60;;;;;;4064154;29;20055;-63
2023/02/02 07:03:20;;;;;;;3.00;0.82;;;16.20;68.70;;;;;;4057629;29;20059;-63
2023/02/02 07:06:11;;;;;;;5.72;0.90;;;16.10;68.70;;;;;;4063218;29;20181;-64
2023/02/02 07:08:55;;;;;;;4.18;0.90;;;16.10;68.60;;;;;;4051101;29;20067;-64
2023/02/02 07:11:42;;;;;;;4.47;1.40;;;16.10;68.70;;;;;;4047563;29;20064;-64
2023/02/02 07:14:25;;;;;;;3.72;0.90;;;16.10;68.90;;;;;;4047371;29;20176;-64
2023/02/02 07:17:06;;;;;;;3.60;1.08;;;16.10;68.80;;;;;;4055567;29;20411;-64
2023/02/02 07:19:48;;;;;;;3.15;1.00;;;16.10;68.80;;;;;;4048802;29;20104;-64
2023/02/02 07:22:29;;;;;;;2.22;1.00;;;16.10;68.90;;;;;;4062846;29;20196;-63
2023/02/02 07:25:11;;;;;;;5.25;1.40;;;16.10;68.90;;;;;;4062003;29;20055;-64
2023/02/02 07:27:53;;;;;;;2.15;0.95;;;16.00;69.20;;;;;;4062448;29;20055;-64
2023/02/02 07:30:34;;;;;;;7.32;1.45;;;16.00;69.60;;;;;;4050692;29;20419;-64
2023/02/02 07:33:15;;;;;;;2.65;0.85;;;16.10;69.40;;;;;;4063026;29;20410;-63
2023/02/02 07:35:56;;;;;;;2.58;1.20;;;16.20;69.10;;;;;;4062716;29;20055;-66
2023/02/02 07:38:38;;;;;;;2.90;1.33;;;16.30;68.80;;;;;;4062707;29;20131;-66
2023/02/02 07:41:20;;;;;;;2.70;0.68;;;16.20;68.50;;;;;;4062406;29;20054;-67
2023/02/02 07:44:01;;;;;;;4.30;1.23;;;16.20;68.60;;;;;;4062725;29;20055;-66
2023/02/02 07:46:43;;;;;;;3.58;1.10;;;16.30;68.70;;;;;;4062795;29;20567;-66
2023/02/02 07:49:23;;;;;;;;;;;16.30;68.50;;;;;;4063468;29;20715;-66
2023/02/02 07:52:04;;;;;;;6.07;1.40;;;16.40;68.70;;;;;;4062938;29;20282;-65
2023/02/02 07:54:46;;;;;;;3.92;1.20;;;16.30;68.70;;;;;;4063101;29;20141;-65
2023/02/02 07:57:28;;;;;;;3.08;1.13;;;16.30;68.70;;;;;;4050727;29;20067;-65
2023/02/02 08:00:10;;;;;;;4.20;1.15;;;16.20;68.50;;;;;;4060728;29;20059;-65
2023/02/02 08:02:54;;;;;;;5.68;0.90;;;16.20;68.70;;;;;;4056067;29;20051;-65
2023/02/02 08:05:35;;;;;;;5.63;1.40;;;16.10;69.10;;;;;;4062280;29;20058;-65
2023/02/02 08:08:16;;;;;;;4.32;1.00;;;16.00;69.70;;;;;;4035412;29;20059;-65
2023/02/02 08:10:57;;;;;;;2.70;0.93;;;16.00;69.40;;;;;;4049990;29;20407;-65
2023/02/02 08:13:40;;;;;;;4.20;1.20;;;16.10;69.30;;;;;;4041428;29;20055;-65
2023/02/02 08:16:22;;;;;;;1.63;0.90;;;16.10;69.20;;;;;;4065083;29;20063;-65
2023/02/02 08:19:03;;;;;;;3.38;1.10;;;16.10;69.00;;;;;;4063671;29;20060;-64
2023/02/02 08:21:44;;;;;;;4.75;1.13;;;16.20;68.80;;;;;;4064810;29;20051;-64
2023/02/02 08:24:25;;;;;;;4.20;1.40;;;16.20;68.70;;;;;;4065532;29;20083;-65
2023/02/02 08:27:07;;;;;;;2.03;0.65;;;16.10;68.60;;;;;;4069180;29;20525;-65
2023/02/02 08:29:49;;;;;;;;;;;16.10;68.80;;;;;;4053928;29;20055;-66
2023/02/02 08:32:30;;;;;;;;;;;16.10;69.50;;;;;;4066386;29;20390;-66
2023/02/02 08:35:11;;;;;;;3.95;1.13;;;16.20;69.40;;;;;;4065780;29;19934;-67
2023/02/02 08:37:52;;;;;;;2.70;1.00;;;16.20;69.00;;;;;;4056568;29;20215;-67
2023/02/02 08:40:33;;;;;;;3.33;0.80;;;16.20;68.80;;;;;;4065034;29;20063;-66
2023/02/02 08:43:16;;;;;;;2.42;0.88;;;16.20;68.70;;;;;;4065467;29;20506;-66
2023/02/02 08:45:58;;;;;;;3.08;1.00;;;16.20;68.80;;;;;;4065530;29;20058;-65
2023/02/02 08:48:44;;;;;;;2.67;0.68;;;16.10;69.00;;;;;;4053364;29;20064;-65
2023/02/02 08:51:25;;;;;;;3.45;1.00;;;16.10;69.10;;;;;;4053764;29;20435;-65
2023/02/02 08:54:06;;;;;;;4.35;1.02;;;16.20;69.10;;;;;;4065725;29;20055;-65
2023/02/02 08:56:47;;;;;;;5.30;1.17;;;16.20;68.90;;;;;;4064259;29;20131;-65
2023/02/02 08:59:28;;;;;;;2.85;0.82;;;16.20;68.80;;;;;;4065626;29;20798;-65
2023/02/02 09:02:12;;;;;;;3.30;1.00;;;16.20;68.90;;;;;;4065342;29;20058;-66
2023/02/02 09:04:53;;;;;;;1.90;0.93;;;16.10;69.90;;;;;;4065290;29;20088;-66
2023/02/02 09:07:34;;;;;;;3.28;1.15;;;16.10;69.20;;;;;;4065450;29;20054;-65
2023/02/02 09:10:15;;;;;;;1.88;0.82;;;16.20;69.00;;;;;;4065012;29;20063;-65
2023/02/02 09:12:56;;;;;;;3.10;0.70;;;16.30;68.70;;;;;;4052724;29;20131;-65
2023/02/02 09:15:38;;;;;;;4.68;1.35;;;16.30;68.40;;;;;;4065118;29;20196;-65
2023/02/02 09:18:20;;;;;;;2.35;0.80;;;16.30;68.30;;;;;;4065140;29;20072;-65
2023/02/02 09:21:02;;;;;;;1.42;0.60;;;16.30;68.30;;;;;;4065118;29;20404;-65
2023/02/02 09:23:44;;;;;;;2.67;0.70;;;16.20;68.50;;;;;;4065031;29;20058;-66
2023/02/02 09:26:27;;;;;;;1.65;0.50;;;16.20;68.50;;;;;;4064900;29;20475;-66
2023/02/02 09:29:12;;;;;;;1.38;0.85;;;16.20;68.90;;;;;;4064278;29;20051;-65
2023/02/02 09:31:52;;;;;;;1.88;0.82;;;16.20;68.80;;;;;;4064556;29;20055;-65
2023/02/02 09:34:34;;;;;;;3.67;1.30;;;16.30;68.60;;;;;;4065265;29;20200;-65
2023/02/02 09:37:15;;;;;;;3.55;1.00;;;16.30;68.40;;;;;;4064609;29;20067;-64
2023/02/02 09:39:56;;;;;;;2.63;0.75;;;16.20;68.40;;;;;;4053281;29;20082;-65
2023/02/02 09:42:51;;;;;;;3.88;1.05;;;16.20;68.60;;;;;;4064776;29;20055;-65
2023/02/02 09:45:38;;;;;;;3.72;0.93;;;16.20;68.50;;;;;;4037138;29;20091;-65
2023/02/02 09:48:27;;;;;;;1.98;1.02;;;16.10;68.80;;;;;;4049189;29;20136;-64
2023/02/02 09:51:16;;;;;;;2.20;0.90;;;16.10;69.20;;;;;;4041850;29;20119;-64
2023/02/02 09:54:01;;;;;;;1.90;0.95;;;16.20;69.20;;;;;;4064719;29;20411;-65
2023/02/02 09:56:45;;;;;;;2.25;1.00;;;16.20;68.80;;;;;;4064907;29;20147;-65
2023/02/02 09:59:30;;;;;;;2.95;0.90;;;16.30;68.70;;;;;;4064689;29;20056;-65
2023/02/02 10:02:18;;;;;;;1.88;1.13;;;16.30;68.50;;;;;;4064775;29;20063;-65
2023/02/02 10:05:10;;;;;;;2.10;0.60;;;16.40;68.30;;;;;;4064311;29;20127;-65
2023/02/02 10:07:56;;;;;;;1.67;1.00;;;16.40;68.30;;;;;;4064669;29;20058;-65
2023/02/02 10:10:41;;;;;;;1.55;0.80;;;16.40;68.20;;;;;;4064285;29;20182;-65
2023/02/02 10:13:29;;;;;;;3.60;0.75;;;16.30;68.10;;;;;;4064465;29;20065;-65
2023/02/02 10:16:16;;;;;;;3.47;0.82;;;16.30;68.30;;;;;;4064230;29;20391;-65
2023/02/02 10:19:03;;;;;;;2.97;1.00;;;16.30;68.30;;;;;;4063845;29;20131;-64
2023/02/02 10:21:50;;;;;;;2.75;1.00;;;16.40;68.30;;;;;;4063563;29;20058;-64
2023/02/02 10:24:34;;;;;;;3.38;1.20;;;16.40;68.10;;;;;;4064265;29;20067;-65
2023/02/02 10:27:16;;;;;;;6.65;1.00;;;16.40;68.10;;;;;;4052573;29;20395;-64
2023/02/02 10:30:00;;;;;;;4.05;1.02;;;16.40;68.20;;;;;;4064251;29;20059;-64
2023/02/02 10:32:47;;;;;;;2.40;1.00;;;16.40;68.30;;;;;;4063818;29;20103;-64
2023/02/02 10:35:39;;;;;;;7.45;1.08;;;16.40;68.20;;;;;;4064081;29;20062;-63
2023/02/02 10:38:25;;;;;;;1.42;0.60;;;16.40;68.00;;;;;;4062757;29;20627;-64
2023/02/02 10:41:17;;;;;;;4.85;1.40;;;16.50;68.00;;;;;;4051990;29;20528;-65
2023/02/02 10:44:18;;;;;;;1.60;0.80;;;16.50;68.70;;;;;;4063624;29;20099;-65
2023/02/02 10:47:04;;;;;;;2.77;0.93;;;16.40;68.00;;;;;;4063618;29;20063;-64
2023/02/02 10:49:45;;;;;;;3.20;1.00;;;16.40;69.20;;;;;;4063886;29;20051;-64
2023/02/02 10:52:31;;;;;;;2.90;0.98;;;16.30;68.40;;;;;;4063920;29;20055;-64
2023/02/02 10:55:23;;;;;;;4.00;1.20;;;16.30;68.40;;;;;;4063342;29;20051;-65
2023/02/02 10:58:15;;;;;;;3.75;1.65;;;16.30;68.30;;;;;;4048295;29;20059;-65
2023/02/02 11:01:00;;;;;;;4.07;1.13;;;16.30;68.50;;;;;;4048598;29;20059;-65
2023/02/02 11:03:41;;;;;;;1.58;0.77;;;16.30;68.70;;;;;;4048454;29;20392;-65
2023/02/02 11:09:22;;;;;;;4.80;1.08;;;16.30;68.80;;;;;;4048566;29;20059;-65
2023/02/02 11:12:09;;;;;;;3.28;0.90;;;16.20;68.70;;;;;;4063040;29;20051;-65
2023/02/02 11:15:00;;;;;;;3.22;0.98;;;16.30;68.80;;;;;;4061644;29;20063;-65
2023/02/02 11:17:41;;;;;;;5.07;0.80;;;16.40;68.70;;;;;;4063429;29;20063;-65
2023/02/02 11:20:31;;;;;;;9.57;1.50;;;16.40;68.40;;;;;;4063047;29;20051;-63
2023/02/02 11:23:18;;;;;;;2.10;0.75;;;16.40;68.50;;;;;;4047465;29;20060;-64
2023/02/02 11:26:04;;;;;;;4.78;1.48;;;16.40;68.80;;;;;;4051025;29;20066;-67
2023/02/02 11:28:48;;;;;;;2.30;1.08;;;16.40;68.90;;;;;;4063436;29;20126;-67
2023/02/02 11:31:36;;;;;;;2.88;1.00;;;16.40;68.80;;;;;;4047599;29;20059;-67
2023/02/02 11:34:20;;;;;;;5.57;1.00;;;16.50;68.40;;;;;;4042014;29;20056;-68
2023/02/02 11:37:10;;;;;;;3.42;1.20;;;16.60;68.30;;;;;;4063302;29;20107;-64
2023/02/02 11:39:50;;;;;;;6.28;1.33;;;16.60;68.00;;;;;;4051038;29;20054;-68
2023/02/02 11:42:34;;;;;;;2.78;1.20;;;16.60;68.00;;;;;;4047289;29;20054;-68
2023/02/02 11:45:18;;;;;;;1.98;0.90;;;16.60;68.10;;;;;;4047431;29;20168;-67
2023/02/02 11:48:05;;;;;;;3.53;1.50;;;16.50;68.20;;;;;;4047490;29;20184;-65
2023/02/02 11:50:48;;;;;;;6.50;1.15;;;16.40;68.30;;;;;;4056542;29;20055;-65
2023/02/02 11:53:31;;;;;;;2.88;1.30;;;16.30;68.60;;;;;;4062385;29;20502;-65
2023/02/02 11:56:22;;;;;;;4.32;1.15;;;16.30;69.00;;;;;;4063085;29;20130;-64
2023/02/02 11:59:04;;;;;;;5.88;1.67;;;16.20;69.40;;;;;;4062986;29;20108;-65
2023/02/02 12:01:45;;;;;;;4.68;0.90;;;16.10;69.60;;;;;;4062753;29;20195;-64
2023/02/02 12:04:27;;;;;;;4.13;1.20;;;16.10;70.30;;;;;;4051104;29;20056;-65
2023/02/02 12:07:19;;;;;;;3.35;1.30;;;16.00;70.20;;;;;;4062394;29;20051;-64
2023/02/02 12:10:01;;;;;;;1.98;0.80;;;16.10;70.10;;;;;;4062380;29;20055;-64
2023/02/02 12:12:51;;;;;;;4.05;1.00;;;16.10;70.00;;;;;;4062421;29;20099;-64
2023/02/02 12:15:45;;;;;;;1.92;0.60;;;16.10;69.90;;;;;;4062619;29;20419;-66
2023/02/02 12:18:41;;;;;;;2.50;0.70;;;16.10;70.00;;;;;;4061593;29;20058;-64
2023/02/02 12:21:35;;;;;;;4.72;0.93;;;16.10;70.10;;;;;;4046887;29;20620;-65
2023/02/02 12:24:27;;;;;;;4.65;1.05;;;16.10;70.40;;;;;;4059737;29;20055;-65
2023/02/02 12:27:19;;;;;;;2.72;1.10;;;16.10;70.30;;;;;;4062423;29;20051;-65
2023/02/02 12:30:06;;;;;;;;;;;16.10;70.10;;;;;;4061988;29;20165;-66
2023/02/02 12:33:23;;;;;;;3.22;0.70;;;16.20;70.30;;;;;;4062696;29;19933;-66
2023/02/02 12:36:30;;;;;;;2.08;0.50;;;16.10;70.10;;;;;;4062131;29;20055;-69
2023/02/02 12:39:23;;;;;;;1.45;0.95;;;16.10;70.30;;;;;;4064054;29;20066;-69
2023/02/02 12:42:39;;;;;;;3.03;1.02;;;16.10;70.90;;;;;;4049404;29;20127;-70
2023/02/02 12:45:47;;;;;;;3.50;0.55;;;16.20;70.80;;;;;;4021794;29;20103;-69
2023/02/02 12:48:40;;;;;;;1.63;0.47;;;16.20;70.30;;;;;;4061144;29;20408;-70
2023/02/02 12:51:35;;;;;;;0.80;0.70;;;16.30;70.20;;;;;;4043928;29;20119;-69
2023/02/02 12:54:36;;;;;;;1.80;0.57;;;16.30;70.20;;;;;;4061976;29;20074;-69
2023/02/02 12:57:34;;;;;;;2.67;0.73;;;16.20;70.20;;;;;;4080702;29;20411;-69
2023/02/02 13:00:39;;;;;;;3.08;1.10;;;16.20;70.60;;;;;;4068263;29;20176;-69
2023/02/02 13:03:35;;;;;;;2.55;0.47;;;16.10;71.00;;;;;;4049245;29;20071;-70
2023/02/02 13:06:44;;;;;;;2.13;0.98;;;16.00;71.10;;;;;;4048584;29;20060;-69
2023/02/02 13:09:29;;;;;;;2.63;1.17;;;16.00;71.50;;;;;;4049609;29;20063;-70
2023/02/02 13:12:14;;;;;;;4.72;1.33;;;15.90;72.10;;;;;;4059001;29;20629;-70
2023/02/02 13:15:01;;;;;;;3.00;1.02;;;15.80;72.30;;;;;;4049345;29;20059;-66
2023/02/02 13:17:48;;;;;;;1.63;1.08;;;15.80;72.70;;;;;;4064662;29;20143;-66
2023/02/02 13:20:38;;;;;;;1.15;0.88;;;15.70;72.80;;;;;;4064081;29;20063;-66
2023/02/02 13:23:27;;;;;;;3.38;1.10;;;15.60;73.00;;;;;;4064475;29;20058;-66
2023/02/02 13:26:18;;;;;;;1.10;0.93;;;15.60;73.40;;;;;;4064719;29;20514;-66
2023/02/02 13:29:05;;;;;;;5.90;1.95;;;15.50;73.50;;;;;;4065021;29;20043;-67
2023/02/02 13:31:51;;;;;;;5.57;1.48;;;15.40;73.80;;;;;;4064440;29;20623;-67
2023/02/02 13:34:41;;;;;;;4.45;1.02;;;15.40;74.00;;;;;;4064603;29;20510;-66
2023/02/02 13:37:35;;;;;;;3.10;1.35;;;15.30;74.20;;;;;;4052922;29;20510;-67
2023/02/02 13:40:25;;;;;;;4.88;1.40;;;15.30;74.40;;;;;;4064356;29;20050;-66
2023/02/02 13:43:21;;;;;;;3.53;1.27;;;15.30;74.90;;;;;;4064541;29;20075;-67
2023/02/02 13:46:24;;;;;;;2.50;1.13;;;15.30;75.00;;;;;;4064171;29;20071;-67
2023/02/02 13:49:12;;;;;;;4.93;1.30;;;15.30;74.80;;;;;;4064121;29;20122;-67
2023/02/02 13:52:14;;;;;;;6.35;1.77;;;15.40;74.90;;;;;;4064738;29;20067;-66
2023/02/02 13:55:40;;;;;;;3.70;2.20;;;15.40;74.70;;;;;;4048760;29;20056;-67
2023/02/02 13:58:40;;;;;;;3.47;1.58;;;15.40;74.70;;;;;;4048461;29;20131;-66
2023/02/02 14:01:22;;;;;;;3.00;1.48;;;15.30;74.90;;;;;;4040442;29;20267;-66
2023/02/02 14:04:05;;;;;;;4.43;1.42;;;15.40;75.00;;;;;;4060283;29;20079;-67
2023/02/02 14:06:56;;;;;;;2.88;1.58;;;15.30;75.10;;;;;;4063220;29;20059;-67
2023/02/02 14:09:37;;;;;;;6.47;2.28;;;15.30;75.10;;;;;;4063883;29;20047;-67
2023/02/02 14:12:33;;;;;;;4.68;1.98;;;15.20;75.50;;;;;;4063794;29;20059;-67
2023/02/02 14:15:15;;;;;;;5.53;2.20;;;15.20;75.60;;;;;;4055736;29;20135;-67
2023/02/02 14:17:56;;;;;;;4.82;1.88;;;15.10;75.90;;;;;;4063993;29;20176;-67
2023/02/02 14:20:46;;;;;;;3.60;1.50;;;15.10;75.90;;;;;;4063841;29;20127;-67
2023/02/02 14:23:50;;;;;;;3.63;1.75;;;15.10;76.10;;;;;;4063983;29;20067;-66
2023/02/02 14:26:42;;;;;;;3.53;1.95;;;15.00;76.20;;;;;;4064138;29;20063;-67
2023/02/02 14:29:36;;;;;;;4.68;1.50;;;15.00;76.40;;;;;;4063877;29;20055;-67
2023/02/02 14:32:33;;;;;;;5.28;2.10;;;15.00;76.60;;;;;;4063331;29;20047;-66